sensor_id;sensor_type;location;lat;lon;timestamp;temperature;humidity
11126;DHT22;5617;54.046;10.676;2023-03-08T00:01:50;0.30;99.90
11126;DHT22;5617;54.046;10.676;2023-03-08T00:03:59;0.30;99.90
11126;DHT22;5617;54.046;10.676;2023-03-08T00:06:09;0.30;99.90
11126;DHT22;5617;54.046;10.676;2023-03-08T00:08:23;0.30;99.90
11126;DHT22;5617;54.046;10.676;2023-03-08T00:10:31;0.20;99.90
11126;DHT22;5617;54.046;10.676;2023-03-08T00:12:41;0.20;99.90
11126;DHT22;5617;54.046;10.676;2023-03-08T00:14:49;0.20;99.90
11126;DHT22;5617;54.046;10.676;2023-03-08T00:16:59;0.20;99.90
11126;DHT22;5617;54.046;10.676;2023-03-08T00:19:11;0.20;99.90
11126;DHT22;5617;54.046;10.676;2023-03-08T00:21:21;0.20;99.90
11126;DHT22;5617;54.046;10.676;2023-03-08T00:23:32;0.20;99.90
11126;DHT22;5617;54.046;10.676;2023-03-08T00:25:43;0.20;99.90
11126;DHT22;5617;54.046;10.676;2023-03-08T00:27:52;0.20;99.90
11126;DHT22;5617;54.046;10.676;2023-03-08T00:30:05;0.20;99.90
11126;DHT22;5617;54.046;10.676;2023-03-08T00:32:21;0.20;99.90
11126;DHT22;5617;54.046;10.676;2023-03-08T00:34:32;0.20;99.90
11126;DHT22;5617;54.046;10.676;2023-03-08T00:36:40;0.20;99.90
11126;DHT22;5617;54.046;10.676;2023-03-08T00:38:50;0.20;99.90
11126;DHT22;5617;54.046;10.676;2023-03-08T00:40:58;0.20;99.90
11126;DHT22;5617;54.046;10.676;2023-03-08T00:43:08;0.20;99.90
11126;DHT22;5617;54.046;10.676;2023-03-08T00:45:16;0.20;99.90
11126;DHT22;5617;54.046;10.676;2023-03-08T00:47:25;0.20;99.90
11126;DHT22;5617;54.046;10.676;2023-03-08T00:49:33;0.20;99.90
11126;DHT22;5617;54.046;10.676;2023-03-08T00:51:42;0.20;99.90
11126;DHT22;5617;54.046;10.676;2023-03-08T00:53:50;0.20;99.90
11126;DHT22;5617;54.046;10.676;2023-03-08T00:55:59;0.20;99.90
11126;DHT22;5617;54.046;10.676;2023-03-08T00:58:08;0.20;99.90
11126;DHT22;5617;54.046;10.676;2023-03-08T01:00:16;0.20;99.90
11126;DHT22;5617;54.046;10.676;2023-03-08T01:02:25;0.20;99.90
11126;DHT22;5617;54.046;10.676;2023-03-08T01:04:33;0.20;99.90
11126;DHT22;5617;54.046;10.676;2023-03-08T01:06:41;0.20;99.90
11126;DHT22;5617;54.046;10.676;2023-03-08T01:08:49;0.20;99.90
11126;DHT22;5617;54.046;10.676;2023-03-08T01:10:59;0.10;99.90
11126;DHT22;5617;54.046;10.676;2023-03-08T01:13:08;0.10;99.90
11126;DHT22;5617;54.046;10.676;2023-03-08T01:15:17;0.20;99.90
11126;DHT22;5617;54.046;10.676;2023-03-08T01:17:25;0.20;99.90
11126;DHT22;5617;54.046;10.676;2023-03-08T01:19:35;0.20;99.90
11126;DHT22;5617;54.046;10.676;2023-03-08T01:22:02;0.20;99.90
11126;DHT22;5617;54.046;10.676;2023-03-08T01:24:29;0.20;99.90
11126;DHT22;5617;54.046;10.676;2023-03-08T01:26:55;0.20;99.90
11126;DHT22;5617;54.046;10.676;2023-03-08T01:29:07;0.20;99.90
11126;DHT22;5617;54.046;10.676;2023-03-08T01:31:17;0.20;99.90
11126;DHT22;5617;54.046;10.676;2023-03-08T01:33:24;0.20;99.90
11126;DHT22;5617;54.046;10.676;2023-03-08T01:35:33;0.20;99.90
11126;DHT22;5617;54.046;10.676;2023-03-08T01:37:41;0.20;99.90
11126;DHT22;5617;54.046;10.676;2023-03-08T01:39:48;0.20;99.90
11126;DHT22;5617;54.046;10.676;2023-03-08T01:41:56;0.20;99.90
11126;DHT22;5617;54.046;10.676;2023-03-08T01:44:03;0.20;99.90
11126;DHT22;5617;54.046;10.676;2023-03-08T01:46:18;0.20;99.90
11126;DHT22;5617;54.046;10.676;2023-03-08T01:48:30;0.20;99.90
11126;DHT22;5617;54.046;10.676;2023-03-08T01:50:38;0.20;99.90
11126;DHT22;5617;54.046;10.676;2023-03-08T01:52:50;0.20;99.90
11126;DHT22;5617;54.046;10.676;2023-03-08T01:55:00;0.20;99.90
11126;DHT22;5617;54.046;10.676;2023-03-08T01:57:15;0.20;99.90
11126;DHT22;5617;54.046;10.676;2023-03-08T01:59:24;0.20;99.90
11126;DHT22;5617;54.046;10.676;2023-03-08T02:01:34;0.20;99.90
11126;DHT22;5617;54.046;10.676;2023-03-08T02:03:43;0.30;99.90
11126;DHT22;5617;54.046;10.676;2023-03-08T02:06:11;0.20;99.90
11126;DHT22;5617;54.046;10.676;2023-03-08T02:08:20;0.30;99.90
11126;DHT22;5617;54.046;10.676;2023-03-08T02:10:27;0.20;99.90
11126;DHT22;5617;54.046;10.676;2023-03-08T02:12:37;0.30;99.90
11126;DHT22;5617;54.046;10.676;2023-03-08T02:14:46;0.30;99.90
11126;DHT22;5617;54.046;10.676;2023-03-08T02:16:55;0.20;99.90
11126;DHT22;5617;54.046;10.676;2023-03-08T02:19:06;0.20;99.90
11126;DHT22;5617;54.046;10.676;2023-03-08T02:21:17;0.30;99.90
11126;DHT22;5617;54.046;10.676;2023-03-08T02:23:28;0.30;99.90
11126;DHT22;5617;54.046;10.676;2023-03-08T02:25:36;0.30;99.90
11126;DHT22;5617;54.046;10.676;2023-03-08T02:27:44;0.30;99.90
11126;DHT22;5617;54.046;10.676;2023-03-08T02:29:52;0.30;99.90
11126;DHT22;5617;54.046;10.676;2023-03-08T02:31:59;0.30;99.90
11126;DHT22;5617;54.046;10.676;2023-03-08T02:34:07;0.30;99.90
11126;DHT22;5617;54.046;10.676;2023-03-08T02:36:15;0.40;99.90
11126;DHT22;5617;54.046;10.676;2023-03-08T02:38:22;0.40;99.90
11126;DHT22;5617;54.046;10.676;2023-03-08T02:40:31;0.60;99.90
11126;DHT22;5617;54.046;10.676;2023-03-08T02:42:39;0.40;99.90
11126;DHT22;5617;54.046;10.676;2023-03-08T02:44:47;0.50;99.90
11126;DHT22;5617;54.046;10.676;2023-03-08T02:46:54;0.50;99.90
11126;DHT22;5617;54.046;10.676;2023-03-08T02:49:02;0.50;99.90
11126;DHT22;5617;54.046;10.676;2023-03-08T02:51:10;0.50;99.90
11126;DHT22;5617;54.046;10.676;2023-03-08T02:53:18;0.50;99.90
11126;DHT22;5617;54.046;10.676;2023-03-08T02:55:25;0.50;99.90
11126;DHT22;5617;54.046;10.676;2023-03-08T02:57:35;0.50;99.90
11126;DHT22;5617;54.046;10.676;2023-03-08T02:59:42;0.50;99.90
11126;DHT22;5617;54.046;10.676;2023-03-08T03:01:50;0.60;99.90
11126;DHT22;5617;54.046;10.676;2023-03-08T03:03:57;0.60;99.90
11126;DHT22;5617;54.046;10.676;2023-03-08T03:06:12;0.60;99.90
11126;DHT22;5617;54.046;10.676;2023-03-08T03:08:21;0.70;99.90
11126;DHT22;5617;54.046;10.676;2023-03-08T03:10:28;0.70;99.90
11126;DHT22;5617;54.046;10.676;2023-03-08T03:12:37;0.70;99.90
11126;DHT22;5617;54.046;10.676;2023-03-08T03:14:45;0.70;99.90
11126;DHT22;5617;54.046;10.676;2023-03-08T03:16:53;0.70;99.90
11126;DHT22;5617;54.046;10.676;2023-03-08T03:19:01;0.60;99.90
11126;DHT22;5617;54.046;10.676;2023-03-08T03:21:11;0.70;99.90
11126;DHT22;5617;54.046;10.676;2023-03-08T03:23:19;0.60;99.90
11126;DHT22;5617;54.046;10.676;2023-03-08T03:25:27;0.60;99.90
11126;DHT22;5617;54.046;10.676;2023-03-08T03:27:38;0.60;99.90
11126;DHT22;5617;54.046;10.676;2023-03-08T03:29:46;0.60;99.90
11126;DHT22;5617;54.046;10.676;2023-03-08T03:31:53;0.60;99.90
11126;DHT22;5617;54.046;10.676;2023-03-08T03:34:02;0.60;99.90
11126;DHT22;5617;54.046;10.676;2023-03-08T03:36:12;0.60;99.90
11126;DHT22;5617;54.046;10.676;2023-03-08T03:38:20;0.60;99.90
11126;DHT22;5617;54.046;10.676;2023-03-08T03:40:28;0.60;99.90
11126;DHT22;5617;54.046;10.676;2023-03-08T03:42:35;0.60;99.90
11126;DHT22;5617;54.046;10.676;2023-03-08T03:44:45;0.60;99.90
11126;DHT22;5617;54.046;10.676;2023-03-08T03:46:52;0.60;99.90
11126;DHT22;5617;54.046;10.676;2023-03-08T03:49:00;0.60;99.90
11126;DHT22;5617;54.046;10.676;2023-03-08T03:51:17;0.60;99.90
11126;DHT22;5617;54.046;10.676;2023-03-08T03:53:27;0.60;99.90
11126;DHT22;5617;54.046;10.676;2023-03-08T03:55:36;0.60;99.90
11126;DHT22;5617;54.046;10.676;2023-03-08T03:57:44;0.60;99.90
11126;DHT22;5617;54.046;10.676;2023-03-08T03:59:53;0.70;99.90
11126;DHT22;5617;54.046;10.676;2023-03-08T04:02:01;0.60;99.90
11126;DHT22;5617;54.046;10.676;2023-03-08T04:04:11;0.60;99.90
11126;DHT22;5617;54.046;10.676;2023-03-08T04:06:21;0.60;99.90
11126;DHT22;5617;54.046;10.676;2023-03-08T04:08:30;0.60;99.90
11126;DHT22;5617;54.046;10.676;2023-03-08T04:10:38;0.50;99.90
11126;DHT22;5617;54.046;10.676;2023-03-08T04:12:47;0.50;99.90
11126;DHT22;5617;54.046;10.676;2023-03-08T04:14:56;0.50;99.90
11126;DHT22;5617;54.046;10.676;2023-03-08T04:17:04;0.60;99.90
11126;DHT22;5617;54.046;10.676;2023-03-08T04:19:12;0.50;99.90
11126;DHT22;5617;54.046;10.676;2023-03-08T04:21:21;0.60;99.90
11126;DHT22;5617;54.046;10.676;2023-03-08T04:23:29;0.60;99.90
11126;DHT22;5617;54.046;10.676;2023-03-08T04:25:37;0.60;99.90
11126;DHT22;5617;54.046;10.676;2023-03-08T04:27:45;0.60;99.90
11126;DHT22;5617;54.046;10.676;2023-03-08T04:29:53;0.50;99.90
11126;DHT22;5617;54.046;10.676;2023-03-08T04:32:03;0.60;99.90
11126;DHT22;5617;54.046;10.676;2023-03-08T04:34:12;0.60;99.90
11126;DHT22;5617;54.046;10.676;2023-03-08T04:36:20;0.50;99.90
11126;DHT22;5617;54.046;10.676;2023-03-08T04:38:28;0.50;99.90
11126;DHT22;5617;54.046;10.676;2023-03-08T04:40:36;0.50;99.90
11126;DHT22;5617;54.046;10.676;2023-03-08T04:43:05;0.50;99.90
11126;DHT22;5617;54.046;10.676;2023-03-08T04:45:14;0.50;99.90
11126;DHT22;5617;54.046;10.676;2023-03-08T04:47:28;0.50;99.90
11126;DHT22;5617;54.046;10.676;2023-03-08T04:49:37;0.70;99.90
11126;DHT22;5617;54.046;10.676;2023-03-08T04:51:54;0.50;99.90
11126;DHT22;5617;54.046;10.676;2023-03-08T04:54:03;0.60;99.90
11126;DHT22;5617;54.046;10.676;2023-03-08T04:56:30;0.50;99.90
11126;DHT22;5617;54.046;10.676;2023-03-08T04:58:37;0.50;99.90
11126;DHT22;5617;54.046;10.676;2023-03-08T05:00:46;0.50;99.90
11126;DHT22;5617;54.046;10.676;2023-03-08T05:02:55;0.50;99.90
11126;DHT22;5617;54.046;10.676;2023-03-08T05:05:22;0.50;99.90
11126;DHT22;5617;54.046;10.676;2023-03-08T05:07:29;0.40;99.90
11126;DHT22;5617;54.046;10.676;2023-03-08T05:09:37;0.40;99.90
11126;DHT22;5617;54.046;10.676;2023-03-08T05:11:45;0.40;99.90
11126;DHT22;5617;54.046;10.676;2023-03-08T05:13:54;0.40;99.90
11126;DHT22;5617;54.046;10.676;2023-03-08T05:16:04;0.40;99.90
11126;DHT22;5617;54.046;10.676;2023-03-08T05:18:13;0.40;99.90
11126;DHT22;5617;54.046;10.676;2023-03-08T05:20:22;0.40;99.90
11126;DHT22;5617;54.046;10.676;2023-03-08T05:22:30;0.40;99.90
11126;DHT22;5617;54.046;10.676;2023-03-08T05:24:38;0.40;99.90
11126;DHT22;5617;54.046;10.676;2023-03-08T05:26:51;0.40;99.90
11126;DHT22;5617;54.046;10.676;2023-03-08T05:29:00;0.40;99.90
11126;DHT22;5617;54.046;10.676;2023-03-08T05:31:10;0.40;99.90
11126;DHT22;5617;54.046;10.676;2023-03-08T05:33:23;0.50;99.90
11126;DHT22;5617;54.046;10.676;2023-03-08T05:35:41;0.50;99.90
11126;DHT22;5617;54.046;10.676;2023-03-08T05:37:50;0.50;99.90
11126;DHT22;5617;54.046;10.676;2023-03-08T05:39:59;0.60;99.90
11126;DHT22;5617;54.046;10.676;2023-03-08T05:42:07;0.60;99.90
11126;DHT22;5617;54.046;10.676;2023-03-08T05:44:15;0.60;99.90
11126;DHT22;5617;54.046;10.676;2023-03-08T05:46:22;0.60;99.90
11126;DHT22;5617;54.046;10.676;2023-03-08T05:48:33;0.60;99.90
11126;DHT22;5617;54.046;10.676;2023-03-08T05:50:41;0.60;99.90
11126;DHT22;5617;54.046;10.676;2023-03-08T05:52:49;0.60;99.90
11126;DHT22;5617;54.046;10.676;2023-03-08T05:54:57;0.60;99.90
11126;DHT22;5617;54.046;10.676;2023-03-08T05:57:05;0.60;99.90
11126;DHT22;5617;54.046;10.676;2023-03-08T05:59:12;0.60;99.90
11126;DHT22;5617;54.046;10.676;2023-03-08T06:01:21;0.70;99.90
11126;DHT22;5617;54.046;10.676;2023-03-08T06:03:32;0.70;99.90
11126;DHT22;5617;54.046;10.676;2023-03-08T06:05:40;0.70;99.90
11126;DHT22;5617;54.046;10.676;2023-03-08T06:07:48;0.80;99.90
11126;DHT22;5617;54.046;10.676;2023-03-08T06:09:56;0.70;99.90
11126;DHT22;5617;54.046;10.676;2023-03-08T06:12:04;0.70;99.90
11126;DHT22;5617;54.046;10.676;2023-03-08T06:14:12;0.70;99.90
11126;DHT22;5617;54.046;10.676;2023-03-08T06:16:19;0.70;99.90
11126;DHT22;5617;54.046;10.676;2023-03-08T06:18:28;0.70;99.90
11126;DHT22;5617;54.046;10.676;2023-03-08T06:20:37;0.70;99.90
11126;DHT22;5617;54.046;10.676;2023-03-08T06:22:45;0.70;99.90
11126;DHT22;5617;54.046;10.676;2023-03-08T06:24:52;0.70;99.90
11126;DHT22;5617;54.046;10.676;2023-03-08T06:27:03;0.70;99.90
11126;DHT22;5617;54.046;10.676;2023-03-08T06:29:10;0.80;99.90
11126;DHT22;5617;54.046;10.676;2023-03-08T06:31:18;0.80;99.90
11126;DHT22;5617;54.046;10.676;2023-03-08T06:33:28;0.90;99.90
11126;DHT22;5617;54.046;10.676;2023-03-08T06:35:37;0.90;99.90
11126;DHT22;5617;54.046;10.676;2023-03-08T06:37:45;0.90;99.90
11126;DHT22;5617;54.046;10.676;2023-03-08T06:39:54;1.00;99.90
11126;DHT22;5617;54.046;10.676;2023-03-08T06:42:01;0.90;99.90
11126;DHT22;5617;54.046;10.676;2023-03-08T06:44:09;1.00;99.90
11126;DHT22;5617;54.046;10.676;2023-03-08T06:46:18;1.00;99.90
11126;DHT22;5617;54.046;10.676;2023-03-08T06:48:25;1.00;99.90
11126;DHT22;5617;54.046;10.676;2023-03-08T06:50:33;1.10;99.90
11126;DHT22;5617;54.046;10.676;2023-03-08T06:52:43;1.10;99.90
11126;DHT22;5617;54.046;10.676;2023-03-08T06:54:51;1.10;99.90
11126;DHT22;5617;54.046;10.676;2023-03-08T06:56:58;1.10;99.90
11126;DHT22;5617;54.046;10.676;2023-03-08T06:59:06;1.10;99.90
11126;DHT22;5617;54.046;10.676;2023-03-08T07:01:14;1.10;99.90
11126;DHT22;5617;54.046;10.676;2023-03-08T07:03:23;1.10;99.90
11126;DHT22;5617;54.046;10.676;2023-03-08T07:05:31;1.10;99.90
11126;DHT22;5617;54.046;10.676;2023-03-08T07:07:43;1.10;99.90
11126;DHT22;5617;54.046;10.676;2023-03-08T07:09:52;1.20;99.90
11126;DHT22;5617;54.046;10.676;2023-03-08T07:12:00;1.30;99.90
11126;DHT22;5617;54.046;10.676;2023-03-08T07:14:08;1.20;99.90
11126;DHT22;5617;54.046;10.676;2023-03-08T07:16:16;1.30;99.90
11126;DHT22;5617;54.046;10.676;2023-03-08T07:18:26;1.30;99.90
11126;DHT22;5617;54.046;10.676;2023-03-08T07:20:33;1.40;99.90
11126;DHT22;5617;54.046;10.676;2023-03-08T07:22:42;1.40;99.90
11126;DHT22;5617;54.046;10.676;2023-03-08T07:24:51;1.40;99.90
11126;DHT22;5617;54.046;10.676;2023-03-08T07:26:59;1.50;99.90
11126;DHT22;5617;54.046;10.676;2023-03-08T07:29:07;1.60;99.90
11126;DHT22;5617;54.046;10.676;2023-03-08T07:31:16;1.60;99.90
11126;DHT22;5617;54.046;10.676;2023-03-08T07:33:24;1.60;99.90
11126;DHT22;5617;54.046;10.676;2023-03-08T07:35:32;1.50;99.90
11126;DHT22;5617;54.046;10.676;2023-03-08T07:37:44;1.50;99.90
11126;DHT22;5617;54.046;10.676;2023-03-08T07:39:53;1.50;99.90
11126;DHT22;5617;54.046;10.676;2023-03-08T07:42:00;1.60;99.90
11126;DHT22;5617;54.046;10.676;2023-03-08T07:44:08;1.70;99.90
11126;DHT22;5617;54.046;10.676;2023-03-08T07:46:16;1.80;99.90
11126;DHT22;5617;54.046;10.676;2023-03-08T07:48:24;1.90;99.90
11126;DHT22;5617;54.046;10.676;2023-03-08T07:50:32;1.90;99.90
11126;DHT22;5617;54.046;10.676;2023-03-08T07:52:40;2.00;99.90
11126;DHT22;5617;54.046;10.676;2023-03-08T07:54:49;2.00;99.90
11126;DHT22;5617;54.046;10.676;2023-03-08T07:56:57;2.00;99.90
11126;DHT22;5617;54.046;10.676;2023-03-08T07:59:05;2.00;99.90
11126;DHT22;5617;54.046;10.676;2023-03-08T08:01:14;2.10;99.90
11126;DHT22;5617;54.046;10.676;2023-03-08T08:03:23;2.10;99.90
11126;DHT22;5617;54.046;10.676;2023-03-08T08:05:34;2.10;99.90
11126;DHT22;5617;54.046;10.676;2023-03-08T08:07:49;2.20;99.90
11126;DHT22;5617;54.046;10.676;2023-03-08T08:09:58;2.30;99.90
11126;DHT22;5617;54.046;10.676;2023-03-08T08:12:07;2.30;99.90
11126;DHT22;5617;54.046;10.676;2023-03-08T08:14:15;2.40;99.90
11126;DHT22;5617;54.046;10.676;2023-03-08T08:16:22;2.50;99.90
11126;DHT22;5617;54.046;10.676;2023-03-08T08:18:32;2.60;99.90
11126;DHT22;5617;54.046;10.676;2023-03-08T08:20:39;2.60;99.90
11126;DHT22;5617;54.046;10.676;2023-03-08T08:22:48;2.50;99.90
11126;DHT22;5617;54.046;10.676;2023-03-08T08:25:03;2.50;99.90
11126;DHT22;5617;54.046;10.676;2023-03-08T08:27:11;2.50;99.90
11126;DHT22;5617;54.046;10.676;2023-03-08T08:29:19;2.40;99.90
11126;DHT22;5617;54.046;10.676;2023-03-08T08:31:28;2.40;99.90
11126;DHT22;5617;54.046;10.676;2023-03-08T08:33:37;2.40;99.90
11126;DHT22;5617;54.046;10.676;2023-03-08T08:35:44;2.30;99.90
11126;DHT22;5617;54.046;10.676;2023-03-08T08:37:52;2.30;99.90
11126;DHT22;5617;54.046;10.676;2023-03-08T08:40:01;2.40;99.90
11126;DHT22;5617;54.046;10.676;2023-03-08T08:42:16;2.40;99.90
11126;DHT22;5617;54.046;10.676;2023-03-08T08:44:24;2.30;99.90
11126;DHT22;5617;54.046;10.676;2023-03-08T08:46:32;2.40;99.90
11126;DHT22;5617;54.046;10.676;2023-03-08T08:48:41;2.40;99.90
11126;DHT22;5617;54.046;10.676;2023-03-08T08:50:49;2.40;99.90
11126;DHT22;5617;54.046;10.676;2023-03-08T08:52:57;2.50;99.90
11126;DHT22;5617;54.046;10.676;2023-03-08T08:55:07;2.70;99.90
11126;DHT22;5617;54.046;10.676;2023-03-08T08:57:15;2.80;99.90
11126;DHT22;5617;54.046;10.676;2023-03-08T08:59:22;2.90;99.90
11126;DHT22;5617;54.046;10.676;2023-03-08T09:01:32;2.90;99.90
11126;DHT22;5617;54.046;10.676;2023-03-08T09:03:43;3.00;99.90
11126;DHT22;5617;54.046;10.676;2023-03-08T09:05:57;3.10;99.90
11126;DHT22;5617;54.046;10.676;2023-03-08T09:08:04;3.00;99.90
11126;DHT22;5617;54.046;10.676;2023-03-08T09:10:14;3.10;99.90
11126;DHT22;5617;54.046;10.676;2023-03-08T09:12:21;3.10;99.90
11126;DHT22;5617;54.046;10.676;2023-03-08T09:14:30;3.20;99.90
11126;DHT22;5617;54.046;10.676;2023-03-08T09:16:37;3.40;99.90
11126;DHT22;5617;54.046;10.676;2023-03-08T09:18:46;3.40;99.90
11126;DHT22;5617;54.046;10.676;2023-03-08T09:20:54;3.20;99.90
11126;DHT22;5617;54.046;10.676;2023-03-08T09:23:01;3.10;99.90
11126;DHT22;5617;54.046;10.676;2023-03-08T09:25:13;3.20;99.90
11126;DHT22;5617;54.046;10.676;2023-03-08T09:27:22;3.20;99.90
11126;DHT22;5617;54.046;10.676;2023-03-08T09:29:31;3.30;99.90
11126;DHT22;5617;54.046;10.676;2023-03-08T09:31:40;3.20;99.90
11126;DHT22;5617;54.046;10.676;2023-03-08T09:33:50;3.20;99.90
11126;DHT22;5617;54.046;10.676;2023-03-08T09:36:00;3.20;99.90
11126;DHT22;5617;54.046;10.676;2023-03-08T09:38:10;3.20;99.90
11126;DHT22;5617;54.046;10.676;2023-03-08T09:40:20;3.30;99.90
11126;DHT22;5617;54.046;10.676;2023-03-08T09:42:32;3.70;99.90
11126;DHT22;5617;54.046;10.676;2023-03-08T09:45:00;3.70;99.90
11126;DHT22;5617;54.046;10.676;2023-03-08T09:47:15;3.80;99.90
11126;DHT22;5617;54.046;10.676;2023-03-08T09:49:28;3.70;99.90
11126;DHT22;5617;54.046;10.676;2023-03-08T09:51:41;3.60;99.90
11126;DHT22;5617;54.046;10.676;2023-03-08T09:53:54;3.60;99.90
11126;DHT22;5617;54.046;10.676;2023-03-08T09:56:09;3.70;99.90
11126;DHT22;5617;54.046;10.676;2023-03-08T09:58:29;3.50;99.90
11126;DHT22;5617;54.046;10.676;2023-03-08T10:00:39;3.60;99.90
11126;DHT22;5617;54.046;10.676;2023-03-08T10:02:55;3.70;99.90
11126;DHT22;5617;54.046;10.676;2023-03-08T10:05:13;3.90;99.90
11126;DHT22;5617;54.046;10.676;2023-03-08T10:07:33;4.00;99.90
11126;DHT22;5617;54.046;10.676;2023-03-08T10:09:48;4.00;99.90
11126;DHT22;5617;54.046;10.676;2023-03-08T10:12:06;3.90;99.90
11126;DHT22;5617;54.046;10.676;2023-03-08T10:14:24;3.90;99.90
11126;DHT22;5617;54.046;10.676;2023-03-08T10:16:36;3.70;99.90
11126;DHT22;5617;54.046;10.676;2023-03-08T10:18:49;3.50;99.90
11126;DHT22;5617;54.046;10.676;2023-03-08T10:20:59;3.40;99.90
11126;DHT22;5617;54.046;10.676;2023-03-08T10:23:13;3.30;99.90
11126;DHT22;5617;54.046;10.676;2023-03-08T10:25:22;3.30;99.90
11126;DHT22;5617;54.046;10.676;2023-03-08T10:27:33;3.20;99.90
11126;DHT22;5617;54.046;10.676;2023-03-08T10:29:48;3.10;99.90
11126;DHT22;5617;54.046;10.676;2023-03-08T10:31:57;2.90;99.90
11126;DHT22;5617;54.046;10.676;2023-03-08T10:34:11;3.00;99.90
11126;DHT22;5617;54.046;10.676;2023-03-08T10:36:22;2.90;99.90
11126;DHT22;5617;54.046;10.676;2023-03-08T10:38:32;2.90;99.90
11126;DHT22;5617;54.046;10.676;2023-03-08T10:40:42;2.80;99.90
11126;DHT22;5617;54.046;10.676;2023-03-08T10:42:53;2.80;99.90
11126;DHT22;5617;54.046;10.676;2023-03-08T10:45:13;2.80;99.90
11126;DHT22;5617;54.046;10.676;2023-03-08T10:47:28;2.80;99.90
11126;DHT22;5617;54.046;10.676;2023-03-08T10:49:37;2.70;99.90
11126;DHT22;5617;54.046;10.676;2023-03-08T10:51:53;2.70;99.90
11126;DHT22;5617;54.046;10.676;2023-03-08T10:54:03;2.70;99.90
11126;DHT22;5617;54.046;10.676;2023-03-08T10:56:22;2.70;99.90
11126;DHT22;5617;54.046;10.676;2023-03-08T10:58:33;2.70;99.90
11126;DHT22;5617;54.046;10.676;2023-03-08T11:00:43;2.60;99.90
11126;DHT22;5617;54.046;10.676;2023-03-08T11:03:01;2.60;99.90
11126;DHT22;5617;54.046;10.676;2023-03-08T11:05:18;2.60;99.90
11126;DHT22;5617;54.046;10.676;2023-03-08T11:07:28;2.60;99.90
11126;DHT22;5617;54.046;10.676;2023-03-08T11:09:36;2.60;99.90
11126;DHT22;5617;54.046;10.676;2023-03-08T11:11:44;2.50;99.90
11126;DHT22;5617;54.046;10.676;2023-03-08T11:13:53;2.50;99.90
11126;DHT22;5617;54.046;10.676;2023-03-08T11:16:13;2.60;99.90
11126;DHT22;5617;54.046;10.676;2023-03-08T11:18:30;2.60;99.90
11126;DHT22;5617;54.046;10.676;2023-03-08T11:20:45;2.60;99.90
11126;DHT22;5617;54.046;10.676;2023-03-08T11:23:05;2.60;99.90
11126;DHT22;5617;54.046;10.676;2023-03-08T11:25:41;2.70;99.90
11126;DHT22;5617;54.046;10.676;2023-03-08T11:28:15;2.70;99.90
11126;DHT22;5617;54.046;10.676;2023-03-08T11:30:34;2.80;99.90
11126;DHT22;5617;54.046;10.676;2023-03-08T11:32:57;2.90;99.90
11126;DHT22;5617;54.046;10.676;2023-03-08T11:35:13;2.90;99.90
11126;DHT22;5617;54.046;10.676;2023-03-08T11:37:33;2.90;99.90
11126;DHT22;5617;54.046;10.676;2023-03-08T11:39:44;3.00;99.90
11126;DHT22;5617;54.046;10.676;2023-03-08T11:41:58;3.00;99.90
11126;DHT22;5617;54.046;10.676;2023-03-08T11:44:35;3.00;99.90
11126;DHT22;5617;54.046;10.676;2023-03-08T11:47:07;3.10;99.90
11126;DHT22;5617;54.046;10.676;2023-03-08T11:49:31;3.10;99.90
11126;DHT22;5617;54.046;10.676;2023-03-08T11:51:46;3.00;99.90
11126;DHT22;5617;54.046;10.676;2023-03-08T11:54:08;2.90;99.90
11126;DHT22;5617;54.046;10.676;2023-03-08T11:56:36;2.90;99.90
11126;DHT22;5617;54.046;10.676;2023-03-08T11:58:49;3.00;99.90
11126;DHT22;5617;54.046;10.676;2023-03-08T12:01:00;3.00;99.90
11126;DHT22;5617;54.046;10.676;2023-03-08T12:03:13;3.00;99.90
11126;DHT22;5617;54.046;10.676;2023-03-08T12:05:27;3.00;99.90
11126;DHT22;5617;54.046;10.676;2023-03-08T12:07:38;3.00;99.90
11126;DHT22;5617;54.046;10.676;2023-03-08T12:09:53;2.90;99.90
11126;DHT22;5617;54.046;10.676;2023-03-08T12:12:05;3.00;99.90
11126;DHT22;5617;54.046;10.676;2023-03-08T12:14:18;3.20;99.90
11126;DHT22;5617;54.046;10.676;2023-03-08T12:16:31;3.10;99.90
11126;DHT22;5617;54.046;10.676;2023-03-08T12:18:44;3.20;99.90
11126;DHT22;5617;54.046;10.676;2023-03-08T12:21:01;3.30;99.90
11126;DHT22;5617;54.046;10.676;2023-03-08T12:23:18;3.40;99.90
11126;DHT22;5617;54.046;10.676;2023-03-08T12:25:29;3.50;99.90
11126;DHT22;5617;54.046;10.676;2023-03-08T12:27:44;3.50;99.90
11126;DHT22;5617;54.046;10.676;2023-03-08T12:29:59;3.60;99.90
11126;DHT22;5617;54.046;10.676;2023-03-08T12:32:13;3.70;99.90
11126;DHT22;5617;54.046;10.676;2023-03-08T12:34:28;3.90;99.90
11126;DHT22;5617;54.046;10.676;2023-03-08T12:36:41;4.20;99.90
11126;DHT22;5617;54.046;10.676;2023-03-08T12:38:50;4.40;99.90
11126;DHT22;5617;54.046;10.676;2023-03-08T12:41:02;4.50;99.90
11126;DHT22;5617;54.046;10.676;2023-03-08T12:43:13;4.50;99.90
11126;DHT22;5617;54.046;10.676;2023-03-08T12:45:27;4.50;99.90
11126;DHT22;5617;54.046;10.676;2023-03-08T12:47:40;4.60;99.90
11126;DHT22;5617;54.046;10.676;2023-03-08T12:49:51;4.80;99.90
11126;DHT22;5617;54.046;10.676;2023-03-08T12:52:04;4.80;99.90
11126;DHT22;5617;54.046;10.676;2023-03-08T12:54:20;4.90;99.90
11126;DHT22;5617;54.046;10.676;2023-03-08T12:56:32;4.90;99.90
11126;DHT22;5617;54.046;10.676;2023-03-08T12:58:48;5.00;99.90
11126;DHT22;5617;54.046;10.676;2023-03-08T13:00:59;5.10;99.90
11126;DHT22;5617;54.046;10.676;2023-03-08T13:03:25;5.20;99.90
11126;DHT22;5617;54.046;10.676;2023-03-08T13:05:35;5.20;99.90
11126;DHT22;5617;54.046;10.676;2023-03-08T13:08:02;5.20;99.90
11126;DHT22;5617;54.046;10.676;2023-03-08T13:10:19;5.10;99.90
11126;DHT22;5617;54.046;10.676;2023-03-08T13:12:39;5.10;99.90
11126;DHT22;5617;54.046;10.676;2023-03-08T13:15:08;5.10;99.90
11126;DHT22;5617;54.046;10.676;2023-03-08T13:17:32;5.10;99.90
11126;DHT22;5617;54.046;10.676;2023-03-08T13:19:44;5.10;99.90
11126;DHT22;5617;54.046;10.676;2023-03-08T13:22:01;5.00;99.90
11126;DHT22;5617;54.046;10.676;2023-03-08T13:24:16;4.90;99.90
11126;DHT22;5617;54.046;10.676;2023-03-08T13:26:56;4.80;99.90
11126;DHT22;5617;54.046;10.676;2023-03-08T13:29:11;4.90;99.90
11126;DHT22;5617;54.046;10.676;2023-03-08T13:31:22;4.90;99.90
11126;DHT22;5617;54.046;10.676;2023-03-08T13:33:36;4.80;99.90
11126;DHT22;5617;54.046;10.676;2023-03-08T13:35:54;4.70;99.90
11126;DHT22;5617;54.046;10.676;2023-03-08T13:38:04;4.70;99.90
11126;DHT22;5617;54.046;10.676;2023-03-08T13:40:20;4.80;99.90
11126;DHT22;5617;54.046;10.676;2023-03-08T13:42:29;5.00;99.90
11126;DHT22;5617;54.046;10.676;2023-03-08T13:44:37;5.20;99.90
11126;DHT22;5617;54.046;10.676;2023-03-08T13:46:48;5.20;99.90
11126;DHT22;5617;54.046;10.676;2023-03-08T13:48:56;5.30;99.90
11126;DHT22;5617;54.046;10.676;2023-03-08T13:51:05;5.40;99.90
11126;DHT22;5617;54.046;10.676;2023-03-08T13:53:15;5.80;99.90
11126;DHT22;5617;54.046;10.676;2023-03-08T13:55:32;6.10;99.90
11126;DHT22;5617;54.046;10.676;2023-03-08T13:57:45;6.40;99.90
11126;DHT22;5617;54.046;10.676;2023-03-08T13:59:56;6.70;99.90
11126;DHT22;5617;54.046;10.676;2023-03-08T14:02:17;6.80;99.90